Time;durP1;ratioP1;P1;durP2;ratioP2;P2;SDS_P1;SDS_P2;PMS_P1;PMS_P2;Temp;Humidity;BMP_temperature;BMP_pressure;BME280_temperature;BME280_humidity;BME280_pressure;Samples;Min_cycle;Max_cycle;Signal;HPM_P1;HPM_P2
2022/09/29 00:00:30;;;;;;;9.57;7.70;;;6.50;99.90;;;;;;6182524;23;20347;-78
2022/09/29 00:02:56;;;;;;;7.60;6.90;;;6.50;99.90;;;;;;6182483;23;20076;-78
2022/09/29 00:05:22;;;;;;;8.27;7.47;;;6.40;99.90;;;;;;6181697;23;20415;-78
2022/09/29 00:07:47;;;;;;;11.37;8.10;;;6.50;99.90;;;;;;6181609;23;20005;-78
2022/09/29 00:10:13;;;;;;;12.37;8.90;;;6.50;99.90;;;;;;6181837;23;20304;-78
2022/09/29 00:12:39;;;;;;;9.53;8.53;;;6.60;99.90;;;;;;6180717;23;20043;-77
2022/09/29 00:15:05;;;;;;;10.67;8.60;;;6.60;99.90;;;;;;6181805;23;20047;-77
2022/09/29 00:17:31;;;;;;;11.27;8.67;;;6.50;99.90;;;;;;6181494;23;20012;-78
2022/09/29 00:19:57;;;;;;;8.83;7.97;;;6.50;99.90;;;;;;6181798;23;20339;-78
2022/09/29 00:22:22;;;;;;;9.10;7.77;;;6.50;99.90;;;;;;6181451;23;20052;-77
2022/09/29 00:24:48;;;;;;;8.73;7.83;;;6.50;99.90;;;;;;6181548;23;20059;-78
2022/09/29 00:27:15;;;;;;;9.23;8.23;;;6.30;99.90;;;;;;6181321;23;20076;-78
2022/09/29 00:29:40;;;;;;;9.17;7.77;;;6.50;99.90;;;;;;6181075;23;20021;-78
2022/09/29 00:32:06;;;;;;;11.00;8.93;;;6.50;99.90;;;;;;6181737;23;20012;-78
2022/09/29 00:34:31;;;;;;;9.70;8.33;;;6.40;99.90;;;;;;6181690;23;20001;-78
2022/09/29 00:36:57;;;;;;;10.83;8.97;;;6.40;99.90;;;;;;6181449;23;20008;-78
2022/09/29 00:39:23;;;;;;;10.40;9.17;;;6.30;99.90;;;;;;6181601;23;20008;-78
2022/09/29 00:41:48;;;;;;;14.13;8.47;;;5.90;99.90;;;;;;6179289;23;20372;-78
2022/09/29 00:44:13;;;;;;;13.00;8.13;;;6.40;99.90;;;;;;6181776;23;20087;-78
2022/09/29 00:47:11;;;;;;;8.70;7.80;;;6.30;99.90;;;;;;6181077;23;20001;-78
2022/09/29 00:49:47;;;;;;;10.20;8.50;;;6.30;99.90;;;;;;6157957;23;20012;-78
2022/09/29 00:52:16;;;;;;;10.53;8.03;;;6.30;99.90;;;;;;6181754;23;20382;-78
2022/09/29 00:54:47;;;;;;;10.73;7.80;;;6.20;99.90;;;;;;6181185;23;20009;-78
2022/09/29 00:57:16;;;;;;;9.00;7.77;;;6.30;99.90;;;;;;6181178;23;20001;-77
2022/09/29 00:59:47;;;;;;;7.97;7.17;;;6.20;99.90;;;;;;6181082;23;20131;-78
2022/09/29 01:02:15;;;;;;;10.33;9.30;;;6.30;99.90;;;;;;6181562;23;20033;-77
2022/09/29 01:04:40;;;;;;;10.20;8.13;;;6.10;99.90;;;;;;6181307;23;20343;-78
2022/09/29 01:07:07;;;;;;;11.43;8.40;;;6.20;99.90;;;;;;6179802;23;20009;-78
2022/09/29 01:09:37;;;;;;;11.73;9.40;;;6.20;99.90;;;;;;6179591;23;20092;-77
2022/09/29 01:12:03;;;;;;;10.50;9.03;;;6.00;99.90;;;;;;6179227;23;20005;-78
2022/09/29 01:14:31;;;;;;;9.87;7.83;;;6.10;99.90;;;;;;6181367;23;20008;-78
2022/09/29 01:16:57;;;;;;;10.57;8.07;;;6.10;99.90;;;;;;6181355;23;20008;-78
2022/09/29 01:20:14;;;;;;;8.13;7.23;;;6.10;99.90;;;;;;6182837;23;20005;-78
2022/09/29 01:22:58;;;;;;;8.97;8.07;;;5.90;99.90;;;;;;6061100;23;20011;-78
2022/09/29 01:25:42;;;;;;;10.40;8.50;;;6.10;99.90;;;;;;6060778;23;20050;-78
2022/09/29 01:28:15;;;;;;;11.90;7.45;;;6.10;99.90;;;;;;6061528;23;20058;-78
2022/09/29 01:30:48;;;;;;;10.70;8.07;;;6.00;99.90;;;;;;6063196;23;20022;-78
2022/09/29 01:33:44;;;;;;;8.20;7.38;;;5.90;99.90;;;;;;6061615;23;20246;-78
2022/09/29 01:36:50;;;;;;;10.00;8.23;;;5.80;99.90;;;;;;6061441;23;20462;-78
2022/09/29 01:39:24;;;;;;;8.80;7.70;;;5.90;99.90;;;;;;6061452;23;20057;-78
2022/09/29 01:41:56;;;;;;;8.47;7.63;;;5.80;99.90;;;;;;6061132;23;20017;-78
2022/09/29 01:44:34;;;;;;;9.77;7.47;;;6.00;99.90;;;;;;6061303;23;20014;-78
2022/09/29 01:47:09;;;;;;;10.50;8.77;;;6.20;99.90;;;;;;6061465;23;20046;-78
2022/09/29 01:49:40;;;;;;;10.40;8.50;;;5.80;99.90;;;;;;6061283;23;20014;-78
2022/09/29 01:52:09;;;;;;;10.00;8.57;;;5.80;99.90;;;;;;6061309;23;20034;-78
2022/09/29 01:55:02;;;;;;;12.40;8.37;;;5.90;99.90;;;;;;6179078;23;20009;-78
2022/09/29 01:57:43;;;;;;;9.40;8.03;;;5.70;99.90;;;;;;6181364;23;20003;-78
2022/09/29 02:00:14;;;;;;;12.07;7.90;;;5.80;99.90;;;;;;6181386;23;20027;-78
2022/09/29 02:02:43;;;;;;;10.87;8.33;;;5.80;99.90;;;;;;6180905;23;20399;-78
2022/09/29 02:05:27;;;;;;;9.63;8.17;;;5.90;99.90;;;;;;6181250;23;20033;-78
2022/09/29 02:07:59;;;;;;;12.47;7.73;;;5.80;99.90;;;;;;6181192;23;20001;-78
2022/09/29 02:10:31;;;;;;;9.17;7.90;;;5.60;99.90;;;;;;6181638;23;20415;-78
2022/09/29 02:12:59;;;;;;;9.97;8.67;;;5.60;99.90;;;;;;6183031;23;20033;-78
2022/09/29 02:15:35;;;;;;;10.70;9.37;;;5.70;99.90;;;;;;6182913;23;20008;-78
2022/09/29 02:18:12;;;;;;;10.07;8.67;;;5.70;99.90;;;;;;6183063;23;20021;-78
2022/09/29 02:20:38;;;;;;;9.80;8.80;;;5.60;99.90;;;;;;6182625;23;20044;-78
2022/09/29 02:23:03;;;;;;;9.83;8.53;;;5.60;99.90;;;;;;6182479;23;20004;-79
2022/09/29 02:25:33;;;;;;;9.20;8.20;;;5.70;99.90;;;;;;6182755;23;20083;-78
2022/09/29 02:27:59;;;;;;;9.73;7.97;;;5.50;99.90;;;;;;6183246;23;20003;-78
2022/09/29 02:30:25;;;;;;;9.83;8.13;;;5.60;99.90;;;;;;6182600;23;20084;-78
2022/09/29 02:32:50;;;;;;;11.43;8.70;;;5.30;99.90;;;;;;6182637;23;20008;-78
2022/09/29 02:35:16;;;;;;;12.50;9.37;;;5.40;99.90;;;;;;6182898;23;20308;-79
2022/09/29 02:37:47;;;;;;;9.90;8.83;;;5.60;99.90;;;;;;6181794;23;20457;-79
2022/09/29 02:40:21;;;;;;;9.70;8.63;;;5.40;99.90;;;;;;6183024;23;20005;-78
2022/09/29 02:43:12;;;;;;;10.18;8.82;;;5.40;99.90;;;;;;6182487;23;20024;-78
2022/09/29 02:46:04;;;;;;;9.60;8.30;;;5.40;99.90;;;;;;6181948;23;20450;-78
2022/09/29 02:49:03;;;;;;;12.90;8.40;;;5.40;99.90;;;;;;6182227;23;20319;-78
2022/09/29 02:51:43;;;;;;;10.53;8.70;;;5.40;99.90;;;;;;6181981;23;20001;-78
2022/09/29 02:54:28;;;;;;;10.53;9.43;;;5.30;99.90;;;;;;6182255;23;20427;-78
2022/09/29 02:57:16;;;;;;;10.90;8.38;;;5.40;99.90;;;;;;6182507;23;20295;-78
2022/09/29 03:00:09;;;;;;;13.23;7.87;;;5.10;99.90;;;;;;6182563;23;20033;-78
2022/09/29 03:02:36;;;;;;;11.00;8.37;;;5.60;99.90;;;;;;6181762;23;20001;-78
2022/09/29 03:05:10;;;;;;;11.93;9.00;;;5.00;99.90;;;;;;6182213;23;20000;-78
2022/09/29 03:07:39;;;;;;;9.45;8.43;;;5.20;99.90;;;;;;6181548;23;20005;-78
2022/09/29 03:10:06;;;;;;;9.10;7.90;;;5.30;99.90;;;;;;6182238;23;20044;-78
2022/09/29 03:12:32;;;;;;;10.60;8.13;;;5.30;99.90;;;;;;6180511;23;20008;-78
2022/09/29 03:14:58;;;;;;;11.70;8.67;;;5.30;99.90;;;;;;6182010;23;20005;-78
2022/09/29 03:17:23;;;;;;;8.70;7.80;;;5.00;99.90;;;;;;6182493;23;20072;-79
2022/09/29 03:19:49;;;;;;;10.00;8.57;;;5.20;99.90;;;;;;6182336;23;20080;-79
2022/09/29 03:22:14;;;;;;;10.57;9.00;;;5.40;99.90;;;;;;6181485;23;20012;-78
2022/09/29 03:24:40;;;;;;;12.07;8.90;;;5.30;99.90;;;;;;6181634;23;20001;-78
2022/09/29 03:27:08;;;;;;;9.47;8.53;;;5.20;99.90;;;;;;6182316;23;20016;-78
2022/09/29 03:29:34;;;;;;;9.97;8.60;;;5.40;99.90;;;;;;6181848;23;20017;-78
2022/09/29 03:32:01;;;;;;;10.70;8.40;;;5.30;99.90;;;;;;6181915;23;20024;-78
2022/09/29 03:34:27;;;;;;;10.13;8.37;;;5.40;99.90;;;;;;6181336;23;20013;-78
2022/09/29 03:36:53;;;;;;;10.30;9.20;;;4.80;99.90;;;;;;6181296;23;20063;-78
2022/09/29 03:39:19;;;;;;;10.20;9.10;;;5.20;99.90;;;;;;6182314;23;19997;-79
2022/09/29 03:41:45;;;;;;;9.47;7.67;;;5.10;99.90;;;;;;6182789;23;20007;-78
2022/09/29 03:44:10;;;;;;;12.20;9.23;;;5.00;99.90;;;;;;6181922;23;20001;-78
2022/09/29 03:46:36;;;;;;;10.93;8.47;;;4.80;99.90;;;;;;6181789;23;20036;-78
2022/09/29 03:49:02;;;;;;;11.23;8.80;;;5.10;99.90;;;;;;6182057;23;20036;-78
2022/09/29 03:51:28;;;;;;;9.40;8.40;;;;;;;;;;6181220;23;19993;-78
2022/09/29 03:53:54;;;;;;;13.77;9.27;;;;;;;;;;6182139;23;20074;-78
2022/09/29 03:56:19;;;;;;;9.93;7.93;;;5.10;99.90;;;;;;6181861;23;20033;-79
2022/09/29 03:58:45;;;;;;;10.40;8.13;;;;;;;;;;6181278;23;20359;-78
2022/09/29 04:01:11;;;;;;;8.50;7.53;;;4.70;99.90;;;;;;6181670;23;20419;-78
2022/09/29 04:03:36;;;;;;;8.93;8.03;;;4.90;99.90;;;;;;6181747;23;20318;-78
2022/09/29 04:06:02;;;;;;;10.40;7.90;;;5.00;99.90;;;;;;6181151;23;20028;-78
2022/09/29 04:08:28;;;;;;;10.67;8.73;;;;;;;;;;6181370;23;20028;-78
2022/09/29 04:10:54;;;;;;;10.70;8.70;;;4.90;99.90;;;;;;6181546;23;20001;-78
2022/09/29 04:13:20;;;;;;;8.90;7.60;;;4.90;99.90;;;;;;6181741;23;20027;-78
2022/09/29 04:15:47;;;;;;;10.80;8.00;;;4.80;99.90;;;;;;6181399;23;20001;-78
2022/09/29 04:18:12;;;;;;;9.93;8.93;;;4.90;99.90;;;;;;6181883;23;19997;-78
2022/09/29 04:20:38;;;;;;;11.40;9.23;;;4.90;99.90;;;;;;6180721;23;20079;-78
2022/09/29 04:23:05;;;;;;;9.23;8.23;;;;;;;;;;6181308;23;20072;-79
2022/09/29 04:25:31;;;;;;;9.87;8.50;;;;;;;;;;6181513;23;19997;-78
2022/09/29 04:27:56;;;;;;;11.33;8.10;;;4.90;99.90;;;;;;6179656;23;20059;-78
2022/09/29 04:30:22;;;;;;;10.57;9.17;;;4.80;99.90;;;;;;6181074;23;20087;-78
2022/09/29 04:32:48;;;;;;;10.57;8.53;;;4.90;99.90;;;;;;6180942;23;20009;-79
2022/09/29 04:35:13;;;;;;;15.97;9.50;;;4.90;99.90;;;;;;6181337;23;20029;-79
2022/09/29 04:37:39;;;;;;;14.03;10.10;;;5.00;99.90;;;;;;6181414;23;20080;-78
2022/09/29 04:40:05;;;;;;;12.70;9.53;;;4.80;99.90;;;;;;6181641;23;20008;-78
2022/09/29 04:42:30;;;;;;;15.03;9.20;;;4.90;99.90;;;;;;6181454;23;20001;-79
2022/09/29 04:44:56;;;;;;;16.27;10.70;;;4.70;99.90;;;;;;6181511;23;20514;-79
2022/09/29 04:47:22;;;;;;;11.27;9.80;;;;;;;;;;6179749;23;20079;-78
2022/09/29 04:49:47;;;;;;;13.23;9.10;;;4.90;99.90;;;;;;6180869;23;20385;-78
2022/09/29 04:52:13;;;;;;;16.87;11.10;;;;;;;;;;6181520;23;20032;-78
2022/09/29 04:54:39;;;;;;;19.23;12.87;;;5.00;99.90;;;;;;6181153;23;20029;-78
2022/09/29 04:57:05;;;;;;;23.43;12.30;;;5.00;99.90;;;;;;6179946;23;20076;-78
2022/09/29 04:59:31;;;;;;;43.77;15.33;;;5.20;99.90;;;;;;6181338;23;20088;-78
2022/09/29 05:01:57;;;;;;;26.47;13.87;;;5.10;99.90;;;;;;6181239;23;20059;-79
2022/09/29 05:04:23;;;;;;;34.33;14.13;;;5.10;99.90;;;;;;6180872;23;20168;-78
2022/09/29 05:06:49;;;;;;;31.10;13.30;;;;;;;;;;6179118;23;20096;-78
2022/09/29 05:09:14;;;;;;;25.30;13.47;;;5.30;99.90;;;;;;6180837;23;20279;-78
2022/09/29 05:11:40;;;;;;;48.63;14.90;;;5.40;99.90;;;;;;6180727;23;20059;-78
2022/09/29 05:14:05;;;;;;;29.53;13.47;;;5.40;99.90;;;;;;6181615;23;20001;-78
2022/09/29 05:16:31;;;;;;;44.70;18.10;;;5.50;99.90;;;;;;6181270;23;20029;-78
2022/09/29 05:18:58;;;;;;;40.97;16.57;;;5.40;99.90;;;;;;6180696;23;20019;-78
2022/09/29 05:21:23;;;;;;;38.93;16.17;;;5.50;99.90;;;;;;6181030;23;20445;-78
2022/09/29 05:23:49;;;;;;;21.47;14.50;;;5.40;99.90;;;;;;6181017;23;20096;-78
2022/09/29 05:26:15;;;;;;;32.43;15.13;;;5.60;99.90;;;;;;6181396;23;20058;-78
2022/09/29 05:28:46;;;;;;;29.03;14.80;;;5.70;99.90;;;;;;6180960;23;20083;-77
2022/09/29 05:31:13;;;;;;;35.50;15.30;;;5.60;99.90;;;;;;6181417;23;20084;-77
2022/09/29 05:33:39;;;;;;;30.57;15.77;;;5.40;99.90;;;;;;6180556;23;20383;-77
2022/09/29 05:36:09;;;;;;;27.00;16.03;;;5.70;99.90;;;;;;6181140;23;20028;-77
2022/09/29 05:38:36;;;;;;;22.60;13.73;;;5.60;99.90;;;;;;6181223;23;20001;-74
2022/09/29 05:41:07;;;;;;;26.23;15.50;;;5.60;99.90;;;;;;6181194;23;20012;-73
2022/09/29 05:43:32;;;;;;;27.10;15.60;;;5.70;99.90;;;;;;6181017;23;20071;-73
2022/09/29 05:46:00;;;;;;;24.37;14.43;;;5.60;99.90;;;;;;6182061;23;20418;-73
2022/09/29 05:48:29;;;;;;;36.80;15.47;;;5.60;99.90;;;;;;6183162;23;20065;-73
2022/09/29 05:51:06;;;;;;;28.77;14.90;;;5.70;99.90;;;;;;6182873;23;20124;-72
2022/09/29 05:53:32;;;;;;;30.27;14.23;;;;;;;;;;6183105;23;20001;-72
2022/09/29 05:55:58;;;;;;;36.37;15.07;;;5.50;99.90;;;;;;6182683;23;20004;-73
2022/09/29 05:58:24;;;;;;;31.33;14.03;;;5.70;99.90;;;;;;6182771;23;20001;-72
2022/09/29 06:00:49;;;;;;;22.23;15.43;;;5.70;99.90;;;;;;6182176;23;19997;-71
2022/09/29 06:03:15;;;;;;;38.70;17.03;;;5.60;99.90;;;;;;6182842;23;19997;-70
2022/09/29 06:05:40;;;;;;;32.97;16.07;;;5.60;99.90;;;;;;6182749;23;20012;-73
2022/09/29 06:08:06;;;;;;;28.87;15.40;;;5.70;99.90;;;;;;6183145;23;20005;-73
2022/09/29 06:10:32;;;;;;;50.03;18.00;;;5.70;99.90;;;;;;6182898;23;20032;-73
2022/09/29 06:12:58;;;;;;;35.97;16.77;;;5.60;99.90;;;;;;6182623;23;19997;-73
2022/09/29 06:15:24;;;;;;;31.13;16.37;;;5.70;99.90;;;;;;6180797;23;20028;-73
2022/09/29 06:17:57;;;;;;;35.93;18.43;;;5.70;99.90;;;;;;6182554;23;20048;-71
2022/09/29 06:20:22;;;;;;;50.73;19.50;;;6.30;99.90;;;;;;6182864;23;20087;-71
2022/09/29 06:22:50;;;;;;;38.23;17.30;;;5.90;99.90;;;;;;6182688;23;20043;-72
2022/09/29 06:25:16;;;;;;;50.27;18.93;;;5.70;99.90;;;;;;6182938;23;20525;-73
2022/09/29 06:27:41;;;;;;;57.23;17.97;;;5.80;99.90;;;;;;6182616;23;20001;-73
2022/09/29 06:30:07;;;;;;;54.83;18.20;;;5.90;99.90;;;;;;6182150;23;20517;-71
2022/09/29 06:32:34;;;;;;;138.80;23.87;;;6.00;99.90;;;;;;6182880;23;20029;-71
2022/09/29 06:37:45;;;;;;;;;;;6.00;99.90;;;;;;6182795;23;20011;-71
2022/09/29 06:40:11;;;;;;;84.87;24.50;;;6.20;99.90;;;;;;6182587;23;19900;-72
2022/09/29 06:42:37;;;;;;;81.00;19.80;;;6.00;99.90;;;;;;6182700;23;20009;-71
2022/09/29 06:45:03;;;;;;;112.97;23.37;;;6.30;99.90;;;;;;6182128;23;20308;-71
2022/09/29 06:47:29;;;;;;;129.20;24.93;;;6.20;99.90;;;;;;6182660;23;20027;-72
2022/09/29 06:49:54;;;;;;;109.27;26.10;;;6.20;99.90;;;;;;6182181;23;20522;-71
2022/09/29 06:52:20;;;;;;;123.10;26.23;;;6.30;99.90;;;;;;6182631;23;20016;-71
2022/09/29 06:54:45;;;;;;;119.27;24.23;;;6.40;99.90;;;;;;6182098;23;20001;-71
2022/09/29 06:57:12;;;;;;;95.40;24.67;;;6.20;99.90;;;;;;6182591;23;20463;-71
2022/09/29 06:59:38;;;;;;;60.53;25.30;;;6.40;99.90;;;;;;6181855;23;20005;-71
2022/09/29 07:02:04;;;;;;;67.90;24.73;;;6.50;99.90;;;;;;6179036;23;20427;-71
2022/09/29 07:04:29;;;;;;;80.93;24.67;;;6.60;99.90;;;;;;6182150;23;20005;-71
2022/09/29 07:06:55;;;;;;;62.43;23.33;;;6.70;99.90;;;;;;6182064;23;20005;-72
2022/09/29 07:09:22;;;;;;;62.53;21.43;;;6.60;99.90;;;;;;6180623;23;20013;-72
2022/09/29 07:11:50;;;;;;;65.07;19.37;;;6.60;99.90;;;;;;6180740;23;20080;-72
2022/09/29 07:14:17;;;;;;;111.57;25.30;;;6.70;99.90;;;;;;6181393;23;20013;-72
2022/09/29 07:16:43;;;;;;;69.07;23.83;;;6.60;99.90;;;;;;6181496;23;20024;-71
2022/09/29 07:19:09;;;;;;;93.60;28.20;;;6.70;99.90;;;;;;6180839;23;20028;-72
2022/09/29 07:21:36;;;;;;;75.67;25.57;;;6.60;99.90;;;;;;6179186;23;20009;-73
2022/09/29 07:24:02;;;;;;;48.63;24.37;;;6.70;99.90;;;;;;6181200;23;20005;-72
2022/09/29 07:26:28;;;;;;;67.13;24.17;;;6.70;99.90;;;;;;6181701;23;20036;-72
2022/09/29 07:28:53;;;;;;;40.10;24.70;;;6.90;99.90;;;;;;6180473;23;20009;-73
2022/09/29 07:31:20;;;;;;;40.53;24.50;;;7.00;99.90;;;;;;6178934;23;20028;-73
2022/09/29 07:33:48;;;;;;;45.80;26.27;;;7.00;99.90;;;;;;6180635;23;20005;-73
2022/09/29 07:36:16;;;;;;;36.73;26.60;;;7.10;99.90;;;;;;6180412;23;20798;-72
2022/09/29 07:38:45;;;;;;;38.43;27.97;;;7.30;99.90;;;;;;6181739;23;20004;-73
2022/09/29 07:41:11;;;;;;;40.17;26.17;;;7.30;99.90;;;;;;6180880;23;20055;-73
2022/09/29 07:43:38;;;;;;;41.67;29.17;;;7.40;99.90;;;;;;6179161;23;20136;-72
2022/09/29 07:46:03;;;;;;;36.47;27.73;;;7.60;99.90;;;;;;6181210;23;20012;-73
2022/09/29 07:48:30;;;;;;;39.73;28.80;;;7.50;99.90;;;;;;6181270;23;20370;-73
2022/09/29 07:51:00;;;;;;;39.43;29.50;;;7.70;99.90;;;;;;6181224;23;20001;-73
2022/09/29 07:53:26;;;;;;;43.23;32.93;;;7.80;99.90;;;;;;6179765;23;20063;-74
2022/09/29 07:55:52;;;;;;;43.40;33.23;;;8.00;99.90;;;;;;6181632;23;20331;-73
2022/09/29 07:58:17;;;;;;;46.97;33.50;;;8.10;99.90;;;;;;6181708;23;20076;-73
2022/09/29 08:00:43;;;;;;;44.50;33.57;;;8.00;99.90;;;;;;6181082;23;20000;-73
2022/09/29 08:03:09;;;;;;;45.07;34.43;;;8.10;99.90;;;;;;6179265;23;20009;-72
2022/09/29 08:05:35;;;;;;;51.20;35.67;;;8.10;99.90;;;;;;6181637;23;20001;-72
2022/09/29 08:08:04;;;;;;;48.90;37.27;;;8.20;99.90;;;;;;6179330;23;20005;-72
2022/09/29 08:10:31;;;;;;;53.07;35.97;;;8.00;99.90;;;;;;6181752;23;20012;-73
2022/09/29 08:12:57;;;;;;;41.70;34.37;;;8.20;99.90;;;;;;6179855;23;20001;-72
2022/09/29 08:15:24;;;;;;;46.40;34.80;;;8.40;99.90;;;;;;6180767;23;20001;-70
2022/09/29 08:17:53;;;;;;;43.67;33.67;;;7.60;99.90;;;;;;6181367;23;20001;-71
2022/09/29 08:20:20;;;;;;;47.93;35.77;;;8.60;99.90;;;;;;6181904;23;20312;-71
2022/09/29 08:22:45;;;;;;;52.90;38.70;;;9.30;99.90;;;;;;6180757;23;20004;-71
2022/09/29 08:25:11;;;;;;;46.13;36.70;;;8.70;99.90;;;;;;6180320;23;20343;-71
2022/09/29 08:27:37;;;;;;;49.53;37.40;;;8.80;99.90;;;;;;6180619;23;20007;-71
2022/09/29 08:30:04;;;;;;;50.60;36.63;;;8.80;99.90;;;;;;6181271;23;20027;-71
2022/09/29 08:32:30;;;;;;;49.07;36.67;;;8.90;99.90;;;;;;6179157;23;20001;-71
2022/09/29 08:34:56;;;;;;;47.33;36.73;;;8.90;99.90;;;;;;6181304;23;20009;-71
2022/09/29 08:37:21;;;;;;;49.33;38.03;;;9.00;99.90;;;;;;6179729;23;20415;-71
2022/09/29 08:39:47;;;;;;;56.63;43.13;;;9.10;99.90;;;;;;6180709;23;20159;-71
2022/09/29 08:42:26;;;;;;;58.57;44.23;;;9.30;99.90;;;;;;6178120;23;20011;-71
2022/09/29 08:45:04;;;;;;;56.43;44.23;;;9.30;99.90;;;;;;6180995;23;20011;-71
2022/09/29 08:47:46;;;;;;;53.03;41.27;;;9.70;99.90;;;;;;6179992;23;20423;-70
2022/09/29 08:50:25;;;;;;;54.10;40.10;;;9.50;99.90;;;;;;6181048;23;20009;-71
2022/09/29 08:53:02;;;;;;;47.80;38.47;;;9.50;99.90;;;;;;6177894;23;20338;-71
2022/09/29 08:55:45;;;;;;;51.27;39.83;;;9.40;99.90;;;;;;6181029;23;20005;-71
2022/09/29 08:58:14;;;;;;;50.28;40.58;;;9.50;99.90;;;;;;6179907;23;20801;-71
2022/09/29 09:01:01;;;;;;;44.33;36.67;;;9.70;99.90;;;;;;6181457;23;20032;-71
2022/09/29 09:03:31;;;;;;;56.30;43.20;;;9.80;99.90;;;;;;6179911;23;20001;-71
2022/09/29 09:06:23;;;;;;;47.30;40.60;;;9.70;99.90;;;;;;6181108;23;20478;-71
2022/09/29 09:09:06;;;;;;;50.17;40.13;;;9.70;99.90;;;;;;6173730;23;20013;-72
2022/09/29 09:11:55;;;;;;;47.47;41.73;;;9.70;99.90;;;;;;6179854;23;20477;-70
2022/09/29 09:15:01;;;;;;;47.40;39.13;;;9.70;99.90;;;;;;6181050;23;20009;-71
2022/09/29 09:17:44;;;;;;;46.60;40.67;;;9.60;99.90;;;;;;6180972;23;20001;-71
2022/09/29 09:20:34;;;;;;;52.17;39.42;;;9.70;99.90;;;;;;6181326;23;20502;-71
2022/09/29 09:23:19;;;;;;;45.00;39.50;;;9.90;99.90;;;;;;6181884;23;20001;-71
2022/09/29 09:25:52;;;;;;;43.10;37.70;;;9.80;99.90;;;;;;6182337;23;20056;-70
2022/09/29 09:28:24;;;;;;;43.85;36.15;;;9.90;99.90;;;;;;6183381;23;20008;-71
2022/09/29 09:31:08;;;;;;;41.50;35.60;;;9.90;99.90;;;;;;6181497;23;20025;-71
2022/09/29 09:33:40;;;;;;;42.92;38.22;;;9.90;99.90;;;;;;6181648;23;20061;-71
2022/09/29 09:36:17;;;;;;;44.20;36.53;;;9.80;99.90;;;;;;6182980;23;20005;-71
2022/09/29 09:39:01;;;;;;;42.13;35.93;;;10.00;99.90;;;;;;6181910;23;20120;-72
2022/09/29 09:41:27;;;;;;;;;;;11.60;99.90;;;;;;6182969;23;20001;-72
2022/09/29 09:44:10;;;;;;;37.03;32.47;;;10.00;99.90;;;;;;6181584;23;19911;-73
2022/09/29 09:46:41;;;;;;;35.73;31.73;;;10.10;99.90;;;;;;6183009;23;20427;-73
2022/09/29 09:49:30;;;;;;;39.90;34.87;;;10.20;99.90;;;;;;6181454;23;20091;-75
2022/09/29 09:52:13;;;;;;;38.10;32.87;;;10.30;99.90;;;;;;6181109;23;20009;-73
2022/09/29 09:54:44;;;;;;;38.55;31.52;;;10.40;99.90;;;;;;6179762;23;20000;-72
2022/09/29 09:57:35;;;;;;;34.07;30.20;;;10.50;99.90;;;;;;6182855;23;20001;-73
2022/09/29 10:00:24;;;;;;;40.07;33.03;;;10.60;99.90;;;;;;6181874;23;20362;-72
2022/09/29 10:02:54;;;;;;;33.53;29.60;;;10.70;99.90;;;;;;6180307;23;20092;-72
2022/09/29 10:05:25;;;;;;;31.53;28.13;;;10.80;99.90;;;;;;6180366;23;20078;-72
2022/09/29 10:07:52;;;;;;;32.43;25.87;;;10.90;99.90;;;;;;6180896;23;20443;-73
2022/09/29 10:10:24;;;;;;;31.80;27.83;;;11.00;99.90;;;;;;6182167;23;20313;-73
2022/09/29 10:13:13;;;;;;;27.57;24.33;;;11.00;99.90;;;;;;6181472;23;20009;-72
2022/09/29 10:16:11;;;;;;;30.30;25.15;;;11.00;99.90;;;;;;6180819;23;20008;-72
2022/09/29 10:18:51;;;;;;;25.33;22.63;;;11.10;99.90;;;;;;6170498;23;20005;-72
2022/09/29 10:21:27;;;;;;;25.43;22.43;;;11.10;99.90;;;;;;6181078;23;20001;-72
2022/09/29 10:23:58;;;;;;;26.40;22.47;;;11.10;99.90;;;;;;6180573;23;20005;-73
2022/09/29 10:26:45;;;;;;;30.83;23.13;;;11.20;99.90;;;;;;6179718;23;20001;-73
2022/09/29 10:29:35;;;;;;;25.37;22.77;;;11.20;99.90;;;;;;6182360;23;20044;-73
2022/09/29 10:32:21;;;;;;;22.37;20.07;;;11.30;99.90;;;;;;6180506;23;20009;-74
2022/09/29 10:34:50;;;;;;;17.42;15.63;;;11.30;99.90;;;;;;6180859;23;20004;-72
2022/09/29 10:37:23;;;;;;;16.88;15.18;;;11.40;99.90;;;;;;6179676;23;20016;-73
2022/09/29 10:39:50;;;;;;;17.00;15.30;;;11.50;99.90;;;;;;6180748;23;19997;-73
2022/09/29 10:42:32;;;;;;;16.30;14.48;;;11.50;99.90;;;;;;6180996;23;20012;-70
2022/09/29 10:45:03;;;;;;;17.67;15.77;;;11.60;99.90;;;;;;6181969;23;20139;-72
2022/09/29 10:47:29;;;;;;;18.13;15.70;;;11.60;99.90;;;;;;6181175;23;20560;-71
2022/09/29 10:50:26;;;;;;;17.67;15.90;;;11.60;99.90;;;;;;6180034;23;20001;-73
2022/09/29 10:52:58;;;;;;;16.33;14.57;;;11.70;99.90;;;;;;6114824;23;20084;-73
2022/09/29 10:55:29;;;;;;;16.00;13.60;;;11.70;99.90;;;;;;6182226;23;20001;-73
2022/09/29 10:57:57;;;;;;;14.45;12.95;;;11.70;99.90;;;;;;6181105;23;20012;-72
2022/09/29 11:00:25;;;;;;;15.50;12.65;;;12.50;99.90;;;;;;6179905;23;20009;-72
2022/09/29 11:02:52;;;;;;;13.90;12.43;;;11.80;99.90;;;;;;6180414;23;20001;-71
2022/09/29 11:05:24;;;;;;;13.90;11.55;;;11.90;99.90;;;;;;6181873;23;20032;-71
2022/09/29 11:07:51;;;;;;;15.68;12.38;;;12.00;99.90;;;;;;6182049;23;20021;-71
2022/09/29 11:10:36;;;;;;;16.95;12.25;;;12.10;99.90;;;;;;6180373;23;20011;-71
2022/09/29 11:13:23;;;;;;;14.68;12.73;;;12.10;99.90;;;;;;6180560;23;20709;-71
2022/09/29 11:15:49;;;;;;;14.93;13.50;;;12.10;99.90;;;;;;6179800;23;20203;-71
2022/09/29 11:18:23;;;;;;;19.10;14.50;;;12.10;99.90;;;;;;6182318;23;20044;-71
2022/09/29 11:20:58;;;;;;;14.90;12.40;;;12.10;99.90;;;;;;6180096;23;20005;-71
2022/09/29 11:24:09;;;;;;;13.25;11.95;;;12.10;99.90;;;;;;6180149;23;20005;-71
2022/09/29 11:26:41;;;;;;;11.90;10.25;;;12.20;99.90;;;;;;6181471;23;20016;-71
2022/09/29 11:29:18;;;;;;;11.93;10.73;;;12.30;99.90;;;;;;6181151;23;20032;-71
2022/09/29 11:32:14;;;;;;;15.32;12.93;;;12.40;99.90;;;;;;6179732;23;20005;-71
2022/09/29 11:34:54;;;;;;;17.95;13.02;;;12.40;99.90;;;;;;6181479;23;20080;-71
2022/09/29 11:37:25;;;;;;;14.13;12.60;;;12.40;99.90;;;;;;6181401;23;20035;-72
2022/09/29 11:40:21;;;;;;;13.27;11.88;;;12.40;99.90;;;;;;6181264;23;20012;-71
2022/09/29 11:43:14;;;;;;;15.73;13.68;;;12.50;99.90;;;;;;6178689;23;20404;-72
2022/09/29 11:45:52;;;;;;;15.65;12.77;;;12.50;99.90;;;;;;6181672;23;20425;-72
2022/09/29 11:48:31;;;;;;;8.57;7.45;;;12.70;99.90;;;;;;6181384;23;20005;-72
2022/09/29 11:50:59;;;;;;;8.43;7.32;;;12.80;99.90;;;;;;6179283;23;20524;-72
2022/09/29 11:53:39;;;;;;;5.53;5.03;;;12.90;99.90;;;;;;6180168;23;19997;-72
2022/09/29 11:56:30;;;;;;;5.57;4.93;;;13.00;99.90;;;;;;6180623;23;20001;-72
2022/09/29 11:59:41;;;;;;;6.65;5.60;;;13.20;99.90;;;;;;6181247;23;20063;-72
2022/09/29 12:02:27;;;;;;;5.88;3.78;;;13.20;99.90;;;;;;6180310;23;20088;-72
2022/09/29 12:04:53;;;;;;;5.80;3.75;;;13.40;99.90;;;;;;6179862;23;20104;-71
2022/09/29 12:07:51;;;;;;;6.50;4.10;;;13.40;99.90;;;;;;6180067;23;20052;-71
2022/09/29 12:10:43;;;;;;;5.43;4.63;;;13.40;99.90;;;;;;6180601;23;20017;-72
2022/09/29 12:13:41;;;;;;;5.90;4.68;;;13.40;99.90;;;;;;6180375;23;20326;-72
2022/09/29 12:16:13;;;;;;;7.55;6.85;;;13.50;99.90;;;;;;6114765;23;20447;-72
2022/09/29 12:18:50;;;;;;;7.40;6.18;;;14.40;99.90;;;;;;6180233;23;19997;-72
2022/09/29 12:21:49;;;;;;;10.63;6.88;;;13.40;99.90;;;;;;6181594;23;20052;-71
2022/09/29 12:24:37;;;;;;;7.50;6.80;;;13.50;99.90;;;;;;6178663;23;20005;-72
2022/09/29 12:27:08;;;;;;;6.60;5.88;;;13.60;99.90;;;;;;6179459;23;20395;-72
2022/09/29 12:29:42;;;;;;;5.93;5.18;;;13.50;99.90;;;;;;6179419;23;20104;-71
2022/09/29 12:32:20;;;;;;;6.30;5.70;;;13.60;99.90;;;;;;6177654;23;20013;-71
2022/09/29 12:35:09;;;;;;;8.48;5.15;;;13.60;99.90;;;;;;6179131;23;20024;-71
2022/09/29 12:38:07;;;;;;;7.00;6.32;;;13.80;99.90;;;;;;6180888;23;19997;-71
2022/09/29 12:40:38;;;;;;;6.15;5.55;;;13.50;99.90;;;;;;6138640;23;20012;-72
2022/09/29 12:43:07;;;;;;;6.18;4.30;;;13.60;99.90;;;;;;6181367;23;19997;-72
2022/09/29 12:46:03;;;;;;;5.88;5.05;;;13.50;99.90;;;;;;6181790;23;20008;-71
2022/09/29 12:48:56;;;;;;;6.05;4.90;;;13.40;99.90;;;;;;6174855;23;20001;-71
2022/09/29 12:51:33;;;;;;;7.43;6.00;;;13.40;99.90;;;;;;6181082;23;20005;-70
2022/09/29 12:54:19;;;;;;;5.18;4.68;;;13.40;99.90;;;;;;6180964;23;20028;-72
2022/09/29 12:57:05;;;;;;;5.47;4.80;;;13.50;99.90;;;;;;6180827;23;20008;-71
2022/09/29 12:59:37;;;;;;;5.00;4.50;;;13.60;99.90;;;;;;6181087;23;20009;-71
2022/09/29 13:02:26;;;;;;;6.75;5.30;;;13.70;99.90;;;;;;6180785;23;20009;-71
2022/09/29 13:05:16;;;;;;;6.00;4.38;;;13.70;99.90;;;;;;6181432;23;20033;-71
2022/09/29 13:07:51;;;;;;;5.88;5.30;;;13.80;99.90;;;;;;6179909;23;20012;-71
2022/09/29 13:11:04;;;;;;;6.68;6.10;;;13.90;99.90;;;;;;6181430;23;20051;-71
2022/09/29 13:13:48;;;;;;;4.60;4.15;;;14.30;99.90;;;;;;6154014;23;20012;-71
2022/09/29 13:16:32;;;;;;;;;;;14.30;99.90;;;;;;6181247;23;20642;-71